sensor_id;sensor_type;location;lat;lon;timestamp;P1;P2;P0
75960;PMS7003;64644;48.914;2.254;2023-02-17T00:01:13;10.25;8.50;6.00
75960;PMS7003;64644;48.914;2.254;2023-02-17T00:03:46;7.25;6.50;6.00
75960;PMS7003;64644;48.914;2.254;2023-02-17T00:06:13;6.00;6.00;6.00
75960;PMS7003;64644;48.914;2.254;2023-02-17T00:08:41;6.75;6.75;6.00
75960;PMS7003;64644;48.914;2.254;2023-02-17T00:11:07;7.00;6.00;5.50
75960;PMS7003;64644;48.914;2.254;2023-02-17T00:13:32;7.25;7.00;4.00
75960;PMS7003;64644;48.914;2.254;2023-02-17T00:15:58;6.00;6.00;4.00
75960;PMS7003;64644;48.914;2.254;2023-02-17T00:18:24;10.50;7.00;6.00
75960;PMS7003;64644;48.914;2.254;2023-02-17T00:20:49;6.25;6.25;3.00
75960;PMS7003;64644;48.914;2.254;2023-02-17T00:23:15;5.75;5.75;3.00
75960;PMS7003;64644;48.914;2.254;2023-02-17T00:25:42;6.50;6.50;3.75
75960;PMS7003;64644;48.914;2.254;2023-02-17T00:28:08;6.75;6.00;3.75
75960;PMS7003;64644;48.914;2.254;2023-02-17T00:30:33;7.00;6.50;3.75
75960;PMS7003;64644;48.914;2.254;2023-02-17T00:32:58;4.50;4.50;4.00
75960;PMS7003;64644;48.914;2.254;2023-02-17T00:35:24;6.75;4.00;3.75
75960;PMS7003;64644;48.914;2.254;2023-02-17T00:37:49;9.75;6.50;5.50
75960;PMS7003;64644;48.914;2.254;2023-02-17T00:40:15;3.75;3.75;3.00
75960;PMS7003;64644;48.914;2.254;2023-02-17T00:42:41;7.25;6.00;4.00
75960;PMS7003;64644;48.914;2.254;2023-02-17T00:45:06;6.75;5.00;3.00
75960;PMS7003;64644;48.914;2.254;2023-02-17T00:47:32;3.00;3.00;3.00
75960;PMS7003;64644;48.914;2.254;2023-02-17T00:49:57;6.50;5.00;3.50
75960;PMS7003;64644;48.914;2.254;2023-02-17T00:52:23;5.25;4.50;3.00
75960;PMS7003;64644;48.914;2.254;2023-02-17T00:54:48;6.00;6.00;3.50
75960;PMS7003;64644;48.914;2.254;2023-02-17T00:57:14;7.75;6.50;4.50
75960;PMS7003;64644;48.914;2.254;2023-02-17T00:59:39;9.50;7.25;4.50
75960;PMS7003;64644;48.914;2.254;2023-02-17T01:02:04;6.00;6.00;4.00
75960;PMS7003;64644;48.914;2.254;2023-02-17T01:04:30;11.00;8.50;5.50
75960;PMS7003;64644;48.914;2.254;2023-02-17T01:06:56;8.25;7.00;5.50
75960;PMS7003;64644;48.914;2.254;2023-02-17T01:09:21;7.00;6.00;3.50
75960;PMS7003;64644;48.914;2.254;2023-02-17T01:11:46;8.00;6.00;3.00
75960;PMS7003;64644;48.914;2.254;2023-02-17T01:14:12;4.00;4.00;4.00
75960;PMS7003;64644;48.914;2.254;2023-02-17T01:16:39;5.50;4.50;4.00
75960;PMS7003;64644;48.914;2.254;2023-02-17T01:19:07;6.50;4.25;2.50
75960;PMS7003;64644;48.914;2.254;2023-02-17T01:21:36;6.50;6.50;4.00
75960;PMS7003;64644;48.914;2.254;2023-02-17T01:24:02;7.00;7.00;4.00
75960;PMS7003;64644;48.914;2.254;2023-02-17T01:26:30;8.00;7.00;6.00
75960;PMS7003;64644;48.914;2.254;2023-02-17T01:28:56;8.75;7.75;6.00
75960;PMS7003;64644;48.914;2.254;2023-02-17T01:31:22;8.00;7.00;4.00
75960;PMS7003;64644;48.914;2.254;2023-02-17T01:33:51;9.00;9.00;6.25
75960;PMS7003;64644;48.914;2.254;2023-02-17T01:36:17;6.00;5.00;3.50
75960;PMS7003;64644;48.914;2.254;2023-02-17T01:38:43;7.00;7.00;4.50
75960;PMS7003;64644;48.914;2.254;2023-02-17T01:41:10;7.75;7.00;5.50
75960;PMS7003;64644;48.914;2.254;2023-02-17T01:43:37;8.00;8.00;5.50
75960;PMS7003;64644;48.914;2.254;2023-02-17T01:46:03;8.25;6.00;4.00
75960;PMS7003;64644;48.914;2.254;2023-02-17T01:48:31;7.00;7.00;6.00
75960;PMS7003;64644;48.914;2.254;2023-02-17T01:51:21;12.00;9.50;7.00
75960;PMS7003;64644;48.914;2.254;2023-02-17T01:53:53;7.00;7.00;4.50
75960;PMS7003;64644;48.914;2.254;2023-02-17T01:56:26;10.50;9.50;7.25
75960;PMS7003;64644;48.914;2.254;2023-02-17T01:58:56;7.00;7.00;5.50
75960;PMS7003;64644;48.914;2.254;2023-02-17T02:01:27;7.25;7.25;6.00
75960;PMS7003;64644;48.914;2.254;2023-02-17T02:03:54;11.50;9.50;6.25
75960;PMS7003;64644;48.914;2.254;2023-02-17T02:06:20;12.25;11.00;6.75
75960;PMS7003;64644;48.914;2.254;2023-02-17T02:09:12;6.00;5.50;2.75
75960;PMS7003;64644;48.914;2.254;2023-02-17T02:11:42;9.00;7.75;6.00
75960;PMS7003;64644;48.914;2.254;2023-02-17T02:14:08;12.25;9.75;6.25
75960;PMS7003;64644;48.914;2.254;2023-02-17T02:16:57;8.00;8.00;6.00
75960;PMS7003;64644;48.914;2.254;2023-02-17T02:41:30;10.00;10.00;6.75
75960;PMS7003;64644;48.914;2.254;2023-02-17T02:43:57;10.25;9.25;6.00
75960;PMS7003;64644;48.914;2.254;2023-02-17T02:46:22;9.00;9.00;7.00
75960;PMS7003;64644;48.914;2.254;2023-02-17T02:48:48;8.75;8.75;6.75
75960;PMS7003;64644;48.914;2.254;2023-02-17T02:56:48;12.00;12.00;7.00
75960;PMS7003;64644;48.914;2.254;2023-02-17T03:02:57;8.75;8.75;5.50
75960;PMS7003;64644;48.914;2.254;2023-02-17T03:05:44;11.50;9.00;7.00
75960;PMS7003;64644;48.914;2.254;2023-02-17T03:08:23;8.25;8.25;6.50
75960;PMS7003;64644;48.914;2.254;2023-02-17T03:10:56;6.25;6.00;4.00
75960;PMS7003;64644;48.914;2.254;2023-02-17T03:13:21;11.75;10.00;6.75
75960;PMS7003;64644;48.914;2.254;2023-02-17T03:15:47;12.25;9.50;7.00
75960;PMS7003;64644;48.914;2.254;2023-02-17T03:18:13;11.00;11.00;7.00
75960;PMS7003;64644;48.914;2.254;2023-02-17T03:20:59;11.75;11.75;6.00
75960;PMS7003;64644;48.914;2.254;2023-02-17T03:23:30;9.00;9.00;6.00
75960;PMS7003;64644;48.914;2.254;2023-02-17T03:25:55;11.00;8.00;6.25
75960;PMS7003;64644;48.914;2.254;2023-02-17T03:28:22;8.00;7.50;3.00
75960;PMS7003;64644;48.914;2.254;2023-02-17T03:30:48;4.00;4.00;1.00
75960;PMS7003;64644;48.914;2.254;2023-02-17T03:33:13;9.00;9.00;7.00
75960;PMS7003;64644;48.914;2.254;2023-02-17T03:35:39;11.00;11.00;6.50
75960;PMS7003;64644;48.914;2.254;2023-02-17T03:38:04;10.00;10.00;6.50
75960;PMS7003;64644;48.914;2.254;2023-02-17T03:40:30;12.00;11.00;6.00
75960;PMS7003;64644;48.914;2.254;2023-02-17T03:42:55;10.50;9.00;6.00
75960;PMS7003;64644;48.914;2.254;2023-02-17T03:45:21;7.00;7.00;5.00
75960;PMS7003;64644;48.914;2.254;2023-02-17T03:47:47;12.25;8.50;5.00
75960;PMS7003;64644;48.914;2.254;2023-02-17T03:50:12;8.75;8.00;6.00
75960;PMS7003;64644;48.914;2.254;2023-02-17T03:52:38;7.25;7.00;6.00
75960;PMS7003;64644;48.914;2.254;2023-02-17T03:55:03;12.75;7.50;5.00
75960;PMS7003;64644;48.914;2.254;2023-02-17T03:57:29;7.25;7.00;5.75
75960;PMS7003;64644;48.914;2.254;2023-02-17T03:59:55;11.50;8.00;4.00
75960;PMS7003;64644;48.914;2.254;2023-02-17T04:02:21;12.00;8.75;6.00
75960;PMS7003;64644;48.914;2.254;2023-02-17T04:04:46;8.75;7.50;6.00
75960;PMS7003;64644;48.914;2.254;2023-02-17T04:07:12;8.00;6.75;3.25
75960;PMS7003;64644;48.914;2.254;2023-02-17T04:09:37;11.75;9.50;7.25
75960;PMS7003;64644;48.914;2.254;2023-02-17T04:12:03;11.50;8.25;6.75
75960;PMS7003;64644;48.914;2.254;2023-02-17T04:14:28;9.25;9.25;6.75
75960;PMS7003;64644;48.914;2.254;2023-02-17T04:16:54;6.50;6.50;3.25
75960;PMS7003;64644;48.914;2.254;2023-02-17T04:19:19;8.00;8.00;6.50
75960;PMS7003;64644;48.914;2.254;2023-02-17T04:21:44;5.50;3.00;2.75
75960;PMS7003;64644;48.914;2.254;2023-02-17T04:24:10;8.75;8.75;5.50
75960;PMS7003;64644;48.914;2.254;2023-02-17T04:26:35;9.75;7.25;4.25
75960;PMS7003;64644;48.914;2.254;2023-02-17T04:29:02;7.75;7.25;4.00
75960;PMS7003;64644;48.914;2.254;2023-02-17T04:31:28;8.50;7.75;4.75
75960;PMS7003;64644;48.914;2.254;2023-02-17T04:33:53;8.00;6.25;4.00
75960;PMS7003;64644;48.914;2.254;2023-02-17T04:36:19;6.00;6.00;3.25
75960;PMS7003;64644;48.914;2.254;2023-02-17T04:38:44;8.25;6.25;4.00
75960;PMS7003;64644;48.914;2.254;2023-02-17T04:41:10;8.00;8.00;4.00
75960;PMS7003;64644;48.914;2.254;2023-02-17T04:43:35;5.00;5.00;4.00
75960;PMS7003;64644;48.914;2.254;2023-02-17T04:46:01;1.00;0.00;0.00
75960;PMS7003;64644;48.914;2.254;2023-02-17T04:48:26;6.00;6.00;4.25
75960;PMS7003;64644;48.914;2.254;2023-02-17T04:50:52;6.25;6.25;3.25
75960;PMS7003;64644;48.914;2.254;2023-02-17T04:53:17;7.25;7.25;4.25
75960;PMS7003;64644;48.914;2.254;2023-02-17T04:55:43;6.00;3.25;2.25
75960;PMS7003;64644;48.914;2.254;2023-02-17T04:58:13;6.00;5.75;3.25
75960;PMS7003;64644;48.914;2.254;2023-02-17T05:00:38;8.00;6.00;3.00
75960;PMS7003;64644;48.914;2.254;2023-02-17T05:03:04;5.00;5.00;3.75
75960;PMS7003;64644;48.914;2.254;2023-02-17T05:05:29;7.00;7.00;3.50
75960;PMS7003;64644;48.914;2.254;2023-02-17T05:07:55;7.75;7.25;4.25
75960;PMS7003;64644;48.914;2.254;2023-02-17T05:10:20;5.00;5.00;3.00
75960;PMS7003;64644;48.914;2.254;2023-02-17T05:12:45;5.50;3.75;3.00
75960;PMS7003;64644;48.914;2.254;2023-02-17T05:15:11;8.50;6.50;4.50
75960;PMS7003;64644;48.914;2.254;2023-02-17T05:17:37;4.25;3.75;2.00
75960;PMS7003;64644;48.914;2.254;2023-02-17T05:20:02;6.00;5.50;4.00
75960;PMS7003;64644;48.914;2.254;2023-02-17T05:22:29;5.00;5.00;3.25
75960;PMS7003;64644;48.914;2.254;2023-02-17T05:24:54;4.00;4.00;2.75
75960;PMS7003;64644;48.914;2.254;2023-02-17T05:27:20;6.75;6.75;4.50
75960;PMS7003;64644;48.914;2.254;2023-02-17T05:29:45;3.00;3.00;2.75
75960;PMS7003;64644;48.914;2.254;2023-02-17T05:32:11;8.50;8.00;4.25
75960;PMS7003;64644;48.914;2.254;2023-02-17T05:34:36;4.00;4.00;3.00
75960;PMS7003;64644;48.914;2.254;2023-02-17T05:37:02;6.00;5.50;2.50
75960;PMS7003;64644;48.914;2.254;2023-02-17T05:39:28;5.50;4.00;2.50
75960;PMS7003;64644;48.914;2.254;2023-02-17T05:41:54;9.75;8.50;5.75
75960;PMS7003;64644;48.914;2.254;2023-02-17T05:44:19;11.00;6.75;4.50
75960;PMS7003;64644;48.914;2.254;2023-02-17T05:46:44;5.50;5.50;3.00
75960;PMS7003;64644;48.914;2.254;2023-02-17T05:49:10;4.50;3.25;3.00
75960;PMS7003;64644;48.914;2.254;2023-02-17T05:51:35;3.50;3.50;2.75
75960;PMS7003;64644;48.914;2.254;2023-02-17T05:54:01;7.25;7.25;3.00
75960;PMS7003;64644;48.914;2.254;2023-02-17T05:56:26;5.50;3.25;1.25
75960;PMS7003;64644;48.914;2.254;2023-02-17T05:58:52;6.25;6.00;3.00
75960;PMS7003;64644;48.914;2.254;2023-02-17T06:01:17;5.75;5.75;3.00
75960;PMS7003;64644;48.914;2.254;2023-02-17T06:03:42;9.25;7.75;4.00
75960;PMS7003;64644;48.914;2.254;2023-02-17T06:06:08;6.00;3.75;2.75
75960;PMS7003;64644;48.914;2.254;2023-02-17T06:08:34;8.25;6.00;3.00
75960;PMS7003;64644;48.914;2.254;2023-02-17T06:11:00;6.00;6.00;4.25
75960;PMS7003;64644;48.914;2.254;2023-02-17T06:13:25;7.00;6.00;3.00
75960;PMS7003;64644;48.914;2.254;2023-02-17T06:15:51;5.00;5.00;2.00
75960;PMS7003;64644;48.914;2.254;2023-02-17T06:18:16;8.25;6.50;3.25
75960;PMS7003;64644;48.914;2.254;2023-02-17T06:20:42;6.00;6.00;3.00
75960;PMS7003;64644;48.914;2.254;2023-02-17T06:23:07;6.00;6.00;3.00
75960;PMS7003;64644;48.914;2.254;2023-02-17T06:25:33;5.50;3.00;3.00
75960;PMS7003;64644;48.914;2.254;2023-02-17T06:27:58;7.00;7.00;4.00
75960;PMS7003;64644;48.914;2.254;2023-02-17T06:30:23;4.50;4.50;3.50
75960;PMS7003;64644;48.914;2.254;2023-02-17T06:32:51;4.00;4.00;3.25
75960;PMS7003;64644;48.914;2.254;2023-02-17T06:35:17;7.50;6.00;4.00
75960;PMS7003;64644;48.914;2.254;2023-02-17T06:37:42;7.00;6.75;4.00
75960;PMS7003;64644;48.914;2.254;2023-02-17T06:40:08;4.50;4.50;2.75
75960;PMS7003;64644;48.914;2.254;2023-02-17T06:42:34;5.00;4.00;3.00
75960;PMS7003;64644;48.914;2.254;2023-02-17T06:45:00;5.00;3.75;2.75
75960;PMS7003;64644;48.914;2.254;2023-02-17T06:47:29;4.50;4.00;2.00
75960;PMS7003;64644;48.914;2.254;2023-02-17T06:49:54;7.25;7.25;3.50
75960;PMS7003;64644;48.914;2.254;2023-02-17T06:52:20;3.75;3.75;2.25
75960;PMS7003;64644;48.914;2.254;2023-02-17T06:54:45;3.00;3.00;2.50
75960;PMS7003;64644;48.914;2.254;2023-02-17T06:57:11;6.75;6.00;3.00
75960;PMS7003;64644;48.914;2.254;2023-02-17T06:59:37;4.75;4.75;3.00
75960;PMS7003;64644;48.914;2.254;2023-02-17T07:02:02;6.75;6.75;2.25
75960;PMS7003;64644;48.914;2.254;2023-02-17T07:04:28;6.50;5.00;2.00
75960;PMS7003;64644;48.914;2.254;2023-02-17T07:06:53;7.75;6.25;4.00
75960;PMS7003;64644;48.914;2.254;2023-02-17T07:09:19;3.50;3.50;2.00
75960;PMS7003;64644;48.914;2.254;2023-02-17T07:11:44;6.50;4.50;3.00
75960;PMS7003;64644;48.914;2.254;2023-02-17T07:14:09;7.50;6.00;3.00
75960;PMS7003;64644;48.914;2.254;2023-02-17T07:16:35;4.50;3.50;2.00
75960;PMS7003;64644;48.914;2.254;2023-02-17T07:19:00;6.25;3.75;2.75
75960;PMS7003;64644;48.914;2.254;2023-02-17T07:21:26;7.25;4.00;3.25
75960;PMS7003;64644;48.914;2.254;2023-02-17T07:23:51;7.75;7.00;5.50
75960;PMS7003;64644;48.914;2.254;2023-02-17T07:26:16;4.00;4.00;2.25
75960;PMS7003;64644;48.914;2.254;2023-02-17T07:28:42;5.50;5.50;3.00
75960;PMS7003;64644;48.914;2.254;2023-02-17T07:31:09;6.00;4.00;3.00
75960;PMS7003;64644;48.914;2.254;2023-02-17T07:33:36;8.00;7.00;4.00
75960;PMS7003;64644;48.914;2.254;2023-02-17T07:36:06;6.50;6.50;3.00
75960;PMS7003;64644;48.914;2.254;2023-02-17T07:38:35;0.25;0.00;0.00
75960;PMS7003;64644;48.914;2.254;2023-02-17T07:41:09;7.00;3.25;2.00
75960;PMS7003;64644;48.914;2.254;2023-02-17T07:43:36;6.25;5.50;3.25
75960;PMS7003;64644;48.914;2.254;2023-02-17T07:46:02;7.50;6.00;3.25
75960;PMS7003;64644;48.914;2.254;2023-02-17T07:48:29;7.50;6.25;3.00
75960;PMS7003;64644;48.914;2.254;2023-02-17T07:50:54;4.50;4.00;2.00
75960;PMS7003;64644;48.914;2.254;2023-02-17T07:53:20;6.00;6.00;3.00
75960;PMS7003;64644;48.914;2.254;2023-02-17T07:55:45;8.25;5.00;2.50
75960;PMS7003;64644;48.914;2.254;2023-02-17T07:58:10;5.50;5.50;3.00
75960;PMS7003;64644;48.914;2.254;2023-02-17T08:00:36;5.50;5.50;3.00
75960;PMS7003;64644;48.914;2.254;2023-02-17T08:03:01;3.75;3.75;2.75
75960;PMS7003;64644;48.914;2.254;2023-02-17T08:05:27;5.50;5.50;2.00
75960;PMS7003;64644;48.914;2.254;2023-02-17T08:07:52;6.00;6.00;3.75
75960;PMS7003;64644;48.914;2.254;2023-02-17T08:10:38;6.50;6.50;3.00
75960;PMS7003;64644;48.914;2.254;2023-02-17T08:13:23;5.00;3.75;3.00
75960;PMS7003;64644;48.914;2.254;2023-02-17T08:15:50;5.50;5.50;3.00
75960;PMS7003;64644;48.914;2.254;2023-02-17T08:18:15;12.25;8.25;4.00
75960;PMS7003;64644;48.914;2.254;2023-02-17T08:20:41;6.25;5.50;3.00
75960;PMS7003;64644;48.914;2.254;2023-02-17T08:23:06;6.00;6.00;2.75
75960;PMS7003;64644;48.914;2.254;2023-02-17T08:25:32;6.50;6.50;3.00
75960;PMS7003;64644;48.914;2.254;2023-02-17T08:27:59;8.00;7.75;3.75
75960;PMS7003;64644;48.914;2.254;2023-02-17T08:30:25;4.00;4.00;2.75
75960;PMS7003;64644;48.914;2.254;2023-02-17T08:32:50;1.75;1.75;1.00
75960;PMS7003;64644;48.914;2.254;2023-02-17T08:35:16;4.50;4.00;3.00
75960;PMS7003;64644;48.914;2.254;2023-02-17T08:37:47;6.00;4.00;3.00
75960;PMS7003;64644;48.914;2.254;2023-02-17T08:40:13;6.75;6.00;4.00
75960;PMS7003;64644;48.914;2.254;2023-02-17T08:42:38;4.75;3.75;2.00
75960;PMS7003;64644;48.914;2.254;2023-02-17T08:45:04;6.25;5.00;2.25
75960;PMS7003;64644;48.914;2.254;2023-02-17T08:47:30;4.50;4.50;2.50
75960;PMS7003;64644;48.914;2.254;2023-02-17T08:49:55;6.50;2.75;1.00
75960;PMS7003;64644;48.914;2.254;2023-02-17T08:52:20;6.00;5.50;3.00
75960;PMS7003;64644;48.914;2.254;2023-02-17T08:54:46;6.50;5.00;3.00
75960;PMS7003;64644;48.914;2.254;2023-02-17T08:57:11;3.50;3.50;2.00
75960;PMS7003;64644;48.914;2.254;2023-02-17T08:59:36;3.75;3.75;2.00
75960;PMS7003;64644;48.914;2.254;2023-02-17T09:02:02;6.50;3.50;3.00
75960;PMS7003;64644;48.914;2.254;2023-02-17T09:04:27;3.50;3.50;2.00
75960;PMS7003;64644;48.914;2.254;2023-02-17T09:06:53;5.50;5.50;2.75
75960;PMS7003;64644;48.914;2.254;2023-02-17T09:09:21;6.00;4.00;3.00
75960;PMS7003;64644;48.914;2.254;2023-02-17T09:11:50;6.00;6.00;3.00
75960;PMS7003;64644;48.914;2.254;2023-02-17T09:14:18;3.25;3.00;1.00
75960;PMS7003;64644;48.914;2.254;2023-02-17T09:16:44;5.00;5.00;2.50
75960;PMS7003;64644;48.914;2.254;2023-02-17T09:19:09;4.25;3.25;2.00
75960;PMS7003;64644;48.914;2.254;2023-02-17T09:21:34;3.75;3.75;3.00
75960;PMS7003;64644;48.914;2.254;2023-02-17T09:24:00;3.00;2.00;2.00
75960;PMS7003;64644;48.914;2.254;2023-02-17T09:26:25;6.00;4.00;2.00
75960;PMS7003;64644;48.914;2.254;2023-02-17T09:28:51;2.75;2.75;2.00
75960;PMS7003;64644;48.914;2.254;2023-02-17T09:31:20;3.00;3.00;1.25
75960;PMS7003;64644;48.914;2.254;2023-02-17T09:33:48;3.00;3.00;1.75
75960;PMS7003;64644;48.914;2.254;2023-02-17T09:36:16;3.00;3.00;2.00
75960;PMS7003;64644;48.914;2.254;2023-02-17T09:38:44;3.50;3.50;2.00
75960;PMS7003;64644;48.914;2.254;2023-02-17T09:43:55;2.50;2.00;1.50
75960;PMS7003;64644;48.914;2.254;2023-02-17T09:46:32;3.25;3.25;2.25
75960;PMS7003;64644;48.914;2.254;2023-02-17T09:49:07;2.00;2.00;2.00
75960;PMS7003;64644;48.914;2.254;2023-02-17T09:51:38;3.25;2.50;2.00
75960;PMS7003;64644;48.914;2.254;2023-02-17T09:54:20;3.00;3.00;2.00
75960;PMS7003;64644;48.914;2.254;2023-02-17T09:56:50;5.00;3.50;2.25
75960;PMS7003;64644;48.914;2.254;2023-02-17T09:59:19;2.25;2.25;2.00
75960;PMS7003;64644;48.914;2.254;2023-02-17T10:01:49;3.00;3.00;2.00
75960;PMS7003;64644;48.914;2.254;2023-02-17T10:06:46;3.00;3.00;1.75
75960;PMS7003;64644;48.914;2.254;2023-02-17T10:11:43;4.00;2.00;1.00
75960;PMS7003;64644;48.914;2.254;2023-02-17T10:14:32;2.00;2.00;1.00
75960;PMS7003;64644;48.914;2.254;2023-02-17T10:17:19;3.00;3.00;1.50
75960;PMS7003;64644;48.914;2.254;2023-02-17T10:22:21;3.00;3.00;2.50
75960;PMS7003;64644;48.914;2.254;2023-02-17T10:24:48;2.00;1.00;1.00
75960;PMS7003;64644;48.914;2.254;2023-02-17T10:30:07;2.00;2.00;1.25
75960;PMS7003;64644;48.914;2.254;2023-02-17T10:33:05;6.25;6.25;4.00
75960;PMS7003;64644;48.914;2.254;2023-02-17T10:41:25;2.00;2.00;1.00
75960;PMS7003;64644;48.914;2.254;2023-02-17T10:43:56;2.25;2.00;1.00
75960;PMS7003;64644;48.914;2.254;2023-02-17T10:46:26;2.00;2.00;2.00
75960;PMS7003;64644;48.914;2.254;2023-02-17T10:48:54;1.50;1.00;0.75
75960;PMS7003;64644;48.914;2.254;2023-02-17T10:51:24;3.00;2.00;1.50
75960;PMS7003;64644;48.914;2.254;2023-02-17T10:54:07;2.00;1.75;1.50
75960;PMS7003;64644;48.914;2.254;2023-02-17T10:56:47;1.50;1.50;1.00
75960;PMS7003;64644;48.914;2.254;2023-02-17T10:59:28;1.50;1.50;1.00
75960;PMS7003;64644;48.914;2.254;2023-02-17T11:01:59;5.25;3.00;3.00
75960;PMS7003;64644;48.914;2.254;2023-02-17T11:04:41;3.25;3.25;2.00
75960;PMS7003;64644;48.914;2.254;2023-02-17T11:07:10;1.00;1.00;1.00
75960;PMS7003;64644;48.914;2.254;2023-02-17T11:09:39;0.00;0.00;0.00
75960;PMS7003;64644;48.914;2.254;2023-02-17T11:12:13;1.50;1.50;1.00
75960;PMS7003;64644;48.914;2.254;2023-02-17T11:14:47;2.00;2.00;1.75
75960;PMS7003;64644;48.914;2.254;2023-02-17T11:17:17;1.25;1.25;1.00
75960;PMS7003;64644;48.914;2.254;2023-02-17T11:20:03;2.00;2.00;2.00
75960;PMS7003;64644;48.914;2.254;2023-02-17T11:22:42;5.00;2.00;2.00
75960;PMS7003;64644;48.914;2.254;2023-02-17T11:25:20;4.25;4.25;2.75
75960;PMS7003;64644;48.914;2.254;2023-02-17T11:27:51;2.25;2.25;2.00
75960;PMS7003;64644;48.914;2.254;2023-02-17T11:30:18;3.00;3.00;2.00
75960;PMS7003;64644;48.914;2.254;2023-02-17T11:32:44;5.50;3.00;2.00
75960;PMS7003;64644;48.914;2.254;2023-02-17T11:35:42;5.00;4.00;2.50
75960;PMS7003;64644;48.914;2.254;2023-02-17T11:38:14;3.50;3.00;2.00
75960;PMS7003;64644;48.914;2.254;2023-02-17T11:40:39;3.00;3.00;2.00
75960;PMS7003;64644;48.914;2.254;2023-02-17T11:43:15;2.00;2.00;2.00
75960;PMS7003;64644;48.914;2.254;2023-02-17T11:45:45;6.00;5.25;3.00
75960;PMS7003;64644;48.914;2.254;2023-02-17T11:56:38;1.00;1.00;1.00
75960;PMS7003;64644;48.914;2.254;2023-02-17T11:59:26;3.75;3.75;2.00
75960;PMS7003;64644;48.914;2.254;2023-02-17T12:02:10;3.00;3.00;2.75
75960;PMS7003;64644;48.914;2.254;2023-02-17T12:04:46;2.50;2.00;2.00
75960;PMS7003;64644;48.914;2.254;2023-02-17T12:16:00;3.75;2.00;2.00
75960;PMS7003;64644;48.914;2.254;2023-02-17T12:21:40;0.00;0.00;0.00
75960;PMS7003;64644;48.914;2.254;2023-02-17T12:27:03;3.00;3.00;2.75
75960;PMS7003;64644;48.914;2.254;2023-02-17T12:29:51;3.00;3.00;2.00
75960;PMS7003;64644;48.914;2.254;2023-02-17T12:33:26;1.50;1.50;1.50
75960;PMS7003;64644;48.914;2.254;2023-02-17T12:35:37;3.50;3.50;2.00
75960;PMS7003;64644;48.914;2.254;2023-02-17T12:38:15;2.75;2.00;2.00
75960;PMS7003;64644;48.914;2.254;2023-02-17T12:43:25;2.00;2.00;2.00
75960;PMS7003;64644;48.914;2.254;2023-02-17T12:45:57;2.00;2.00;1.75
75960;PMS7003;64644;48.914;2.254;2023-02-17T12:48:29;2.00;2.00;1.00
75960;PMS7003;64644;48.914;2.254;2023-02-17T12:51:11;2.00;2.00;1.75
75960;PMS7003;64644;48.914;2.254;2023-02-17T12:53:44;2.00;2.00;2.00
75960;PMS7003;64644;48.914;2.254;2023-02-17T12:58:48;1.00;1.00;1.00
75960;PMS7003;64644;48.914;2.254;2023-02-17T13:01:16;2.00;2.00;1.25
75960;PMS7003;64644;48.914;2.254;2023-02-17T13:03:45;2.00;2.00;1.75
75960;PMS7003;64644;48.914;2.254;2023-02-17T13:06:32;1.25;1.00;1.00
75960;PMS7003;64644;48.914;2.254;2023-02-17T13:09:24;2.00;1.00;1.00
75960;PMS7003;64644;48.914;2.254;2023-02-17T13:11:53;3.00;3.00;2.00
75960;PMS7003;64644;48.914;2.254;2023-02-17T13:14:36;2.00;2.00;2.00
75960;PMS7003;64644;48.914;2.254;2023-02-17T13:17:04;2.00;2.00;1.25
75960;PMS7003;64644;48.914;2.254;2023-02-17T13:19:30;2.00;2.00;2.00
75960;PMS7003;64644;48.914;2.254;2023-02-17T13:21:58;2.00;2.00;2.00
75960;PMS7003;64644;48.914;2.254;2023-02-17T13:29:59;3.25;2.00;1.50
75960;PMS7003;64644;48.914;2.254;2023-02-17T13:32:29;1.00;1.00;1.00
75960;PMS7003;64644;48.914;2.254;2023-02-17T13:35:05;4.00;2.00;2.00
75960;PMS7003;64644;48.914;2.254;2023-02-17T13:37:43;1.00;1.00;1.00
75960;PMS7003;64644;48.914;2.254;2023-02-17T13:42:42;2.00;2.00;1.00
75960;PMS7003;64644;48.914;2.254;2023-02-17T13:50:52;2.00;2.00;2.00
75960;PMS7003;64644;48.914;2.254;2023-02-17T13:53:35;2.50;2.50;1.50
75960;PMS7003;64644;48.914;2.254;2023-02-17T13:56:10;2.75;2.25;1.00
75960;PMS7003;64644;48.914;2.254;2023-02-17T13:58:47;3.00;2.00;2.00
75960;PMS7003;64644;48.914;2.254;2023-02-17T14:01:25;1.75;1.75;1.00
75960;PMS7003;64644;48.914;2.254;2023-02-17T14:03:55;2.00;2.00;1.00
75960;PMS7003;64644;48.914;2.254;2023-02-17T14:06:23;2.00;2.00;1.50
75960;PMS7003;64644;48.914;2.254;2023-02-17T14:08:52;2.00;2.00;2.00
75960;PMS7003;64644;48.914;2.254;2023-02-17T14:11:19;2.25;1.00;1.00
75960;PMS7003;64644;48.914;2.254;2023-02-17T14:13:47;2.00;2.00;1.75
75960;PMS7003;64644;48.914;2.254;2023-02-17T14:19:05;2.50;2.00;2.00
75960;PMS7003;64644;48.914;2.254;2023-02-17T14:21:34;2.00;2.00;2.00
75960;PMS7003;64644;48.914;2.254;2023-02-17T14:24:04;3.00;2.00;1.00
75960;PMS7003;64644;48.914;2.254;2023-02-17T14:29:10;1.00;1.00;1.00
75960;PMS7003;64644;48.914;2.254;2023-02-17T14:34:29;1.00;1.00;1.00
75960;PMS7003;64644;48.914;2.254;2023-02-17T14:37:06;4.00;1.00;1.00
75960;PMS7003;64644;48.914;2.254;2023-02-17T14:39:41;2.00;2.00;1.00
75960;PMS7003;64644;48.914;2.254;2023-02-17T14:42:07;1.75;1.00;0.75
75960;PMS7003;64644;48.914;2.254;2023-02-17T14:44:32;4.00;3.25;2.75
75960;PMS7003;64644;48.914;2.254;2023-02-17T14:46:57;1.00;1.00;1.00
75960;PMS7003;64644;48.914;2.254;2023-02-17T14:49:23;1.00;1.00;1.00
75960;PMS7003;64644;48.914;2.254;2023-02-17T14:51:48;1.00;1.00;1.00
75960;PMS7003;64644;48.914;2.254;2023-02-17T14:54:14;1.25;1.25;1.00
75960;PMS7003;64644;48.914;2.254;2023-02-17T14:56:50;1.50;1.50;1.00
75960;PMS7003;64644;48.914;2.254;2023-02-17T14:59:23;2.00;2.00;1.00
75960;PMS7003;64644;48.914;2.254;2023-02-17T15:01:49;1.00;1.00;1.00
75960;PMS7003;64644;48.914;2.254;2023-02-17T15:04:14;1.00;0.75;0.00
75960;PMS7003;64644;48.914;2.254;2023-02-17T15:06:40;3.00;2.00;2.00
75960;PMS7003;64644;48.914;2.254;2023-02-17T15:09:11;1.50;1.50;1.00
75960;PMS7003;64644;48.914;2.254;2023-02-17T15:11:39;2.00;2.00;1.25
75960;PMS7003;64644;48.914;2.254;2023-02-17T15:14:13;2.50;1.50;1.00
75960;PMS7003;64644;48.914;2.254;2023-02-17T15:16:43;1.00;1.00;1.00
75960;PMS7003;64644;48.914;2.254;2023-02-17T15:19:10;1.00;1.00;1.00
75960;PMS7003;64644;48.914;2.254;2023-02-17T15:21:37;1.25;1.00;0.25
75960;PMS7003;64644;48.914;2.254;2023-02-17T15:24:07;0.25;0.25;0.25
75960;PMS7003;64644;48.914;2.254;2023-02-17T15:26:44;2.75;2.75;1.00
75960;PMS7003;64644;48.914;2.254;2023-02-17T15:29:21;1.00;1.00;0.00
75960;PMS7003;64644;48.914;2.254;2023-02-17T15:31:52;1.00;1.00;1.00
75960;PMS7003;64644;48.914;2.254;2023-02-17T15:34:25;2.25;1.75;1.75
75960;PMS7003;64644;48.914;2.254;2023-02-17T15:36:55;1.75;1.50;1.00
75960;PMS7003;64644;48.914;2.254;2023-02-17T15:39:20;1.00;1.00;1.00
75960;PMS7003;64644;48.914;2.254;2023-02-17T15:41:46;1.75;1.00;1.00
75960;PMS7003;64644;48.914;2.254;2023-02-17T15:44:20;1.25;1.25;1.00
75960;PMS7003;64644;48.914;2.254;2023-02-17T15:46:49;1.50;1.50;1.00
75960;PMS7003;64644;48.914;2.254;2023-02-17T15:49:16;2.00;1.00;1.00
75960;PMS7003;64644;48.914;2.254;2023-02-17T15:51:41;1.25;1.00;1.00
75960;PMS7003;64644;48.914;2.254;2023-02-17T15:54:06;1.25;1.25;1.00
75960;PMS7003;64644;48.914;2.254;2023-02-17T15:56:37;1.00;1.00;0.75
75960;PMS7003;64644;48.914;2.254;2023-02-17T15:59:13;3.00;3.00;2.00
75960;PMS7003;64644;48.914;2.254;2023-02-17T16:01:41;2.25;2.25;1.00
75960;PMS7003;64644;48.914;2.254;2023-02-17T16:04:10;1.00;1.00;1.00
75960;PMS7003;64644;48.914;2.254;2023-02-17T16:06:37;1.50;1.50;1.25
75960;PMS7003;64644;48.914;2.254;2023-02-17T16:09:02;2.00;2.00;1.00
75960;PMS7003;64644;48.914;2.254;2023-02-17T16:11:28;3.00;3.00;2.75